Time;durP1;ratioP1;P1;durP2;ratioP2;P2;SDS_P1;SDS_P2;PMS_P1;PMS_P2;Temp;Humidity;BMP_temperature;BMP_pressure;BME280_temperature;BME280_humidity;BME280_pressure;Samples;Min_cycle;Max_cycle;Signal;HPM_P1;HPM_P2
2021/01/27 00:02:05;;;;;;;3.50;2.40;;;1.70;67.20;;;;;;5010851;28;20214;-62
2021/01/27 00:04:33;;;;;;;4.63;2.43;;;1.70;67.10;;;;;;5028158;28;20792;-61
2021/01/27 00:07:00;;;;;;;2.93;2.30;;;1.70;67.20;;;;;;5012666;28;20231;-61
2021/01/27 00:09:26;;;;;;;3.63;2.13;;;1.70;67.20;;;;;;5014650;28;20211;-61
2021/01/27 00:11:53;;;;;;;5.47;2.40;;;1.70;67.10;;;;;;5027119;28;20648;-61
2021/01/27 00:14:19;;;;;;;4.70;2.47;;;1.70;67.00;;;;;;5011821;28;20410;-61
2021/01/27 00:16:46;;;;;;;3.73;2.40;;;1.60;66.80;;;;;;5012464;28;20211;-61
2021/01/27 00:19:13;;;;;;;2.67;2.17;;;1.60;66.90;;;;;;5011672;28;20643;-61
2021/01/27 00:21:39;;;;;;;6.43;2.63;;;1.60;67.00;;;;;;5011767;28;20215;-61
2021/01/27 00:24:06;;;;;;;6.37;2.70;;;1.60;67.80;;;;;;5011676;28;20223;-62
2021/01/27 00:26:33;;;;;;;4.17;2.83;;;1.60;67.20;;;;;;5014807;28;20230;-61
2021/01/27 00:28:59;;;;;;;2.30;1.90;;;1.60;67.30;;;;;;5010670;28;20207;-61
2021/01/27 00:31:26;;;;;;;3.43;2.40;;;1.50;67.30;;;;;;5010783;28;20283;-61
2021/01/27 00:33:53;;;;;;;3.60;2.53;;;1.50;67.40;;;;;;5010992;28;20285;-61
2021/01/27 00:36:20;;;;;;;4.80;2.23;;;1.50;67.40;;;;;;5012259;28;20211;-61
2021/01/27 00:38:47;;;;;;;3.43;2.60;;;1.50;67.40;;;;;;5014610;28;20222;-61
2021/01/27 00:41:13;;;;;;;3.03;2.47;;;1.50;67.30;;;;;;5014495;28;20553;-61
2021/01/27 00:43:41;;;;;;;4.93;2.60;;;1.50;67.20;;;;;;5031375;28;20310;-61
2021/01/27 00:46:08;;;;;;;5.97;2.13;;;1.50;67.00;;;;;;5016213;28;20246;-61
2021/01/27 00:48:34;;;;;;;3.93;2.20;;;1.50;67.00;;;;;;5015206;28;20207;-61
2021/01/27 00:51:01;;;;;;;3.40;2.00;;;1.50;67.00;;;;;;5015805;28;20208;-61
2021/01/27 00:53:27;;;;;;;2.83;2.23;;;1.50;67.00;;;;;;5013433;28;20215;-61
2021/01/27 00:55:54;;;;;;;3.27;2.40;;;1.50;67.00;;;;;;5017320;28;20259;-62
2021/01/27 00:58:21;;;;;;;4.30;2.50;;;1.50;67.00;;;;;;5013052;28;20224;-61
2021/01/27 01:00:47;;;;;;;3.43;2.30;;;1.40;66.90;;;;;;5015079;28;20216;-61
2021/01/27 01:03:14;;;;;;;5.23;2.87;;;1.40;66.80;;;;;;5027757;28;20204;-61
2021/01/27 01:05:43;;;;;;;9.00;3.27;;;1.40;66.70;;;;;;5034537;28;20242;-62
2021/01/27 01:08:12;;;;;;;7.43;3.47;;;1.30;66.70;;;;;;5034177;28;20207;-65
2021/01/27 01:10:45;;;;;;;4.33;2.60;;;1.30;66.80;;;;;;5035282;28;20215;-61
2021/01/27 01:13:15;;;;;;;3.77;2.20;;;1.30;66.80;;;;;;5034565;28;20218;-61
2021/01/27 01:15:41;;;;;;;3.23;2.30;;;1.30;67.00;;;;;;5035992;28;20211;-61
2021/01/27 01:18:10;;;;;;;4.33;2.30;;;1.30;67.10;;;;;;5031959;28;20705;-61
2021/01/27 01:20:37;;;;;;;3.67;2.37;;;1.30;67.10;;;;;;5035145;28;20218;-61
2021/01/27 01:23:04;;;;;;;6.37;3.33;;;1.30;67.10;;;;;;5034829;28;20222;-61
2021/01/27 01:25:33;;;;;;;5.77;2.87;;;1.30;67.10;;;;;;5035184;28;20215;-62
2021/01/27 01:28:00;;;;;;;3.03;2.20;;;1.30;67.10;;;;;;5034987;28;20304;-61
2021/01/27 01:30:31;;;;;;;3.50;2.20;;;1.30;67.00;;;;;;5035172;28;20203;-61
2021/01/27 01:33:10;;;;;;;2.87;2.43;;;1.30;67.10;;;;;;5034776;28;20203;-61
2021/01/27 01:35:40;;;;;;;2.60;2.13;;;1.30;67.20;;;;;;5034474;28;20203;-62
2021/01/27 01:38:07;;;;;;;5.43;2.57;;;1.30;67.30;;;;;;5016926;28;20218;-62
2021/01/27 01:40:52;;;;;;;3.33;2.40;;;1.30;67.30;;;;;;5034135;28;20207;-61
2021/01/27 01:43:23;;;;;;;3.90;2.53;;;1.30;67.20;;;;;;5039120;28;20222;-61
2021/01/27 01:46:12;;;;;;;8.27;2.57;;;1.20;67.10;;;;;;5028588;28;20480;-61
2021/01/27 01:48:39;;;;;;;2.73;2.50;;;1.20;67.00;;;;;;5006475;28;20227;-61
2021/01/27 01:51:27;;;;;;;3.37;1.83;;;1.20;66.90;;;;;;5033633;28;20245;-62
2021/01/27 01:54:08;;;;;;;3.03;1.97;;;1.20;66.90;;;;;;5030070;28;20217;-61
2021/01/27 01:56:37;;;;;;;2.47;2.07;;;1.10;66.50;;;;;;5034284;28;20531;-61
2021/01/27 01:59:09;;;;;;;2.57;1.97;;;1.10;66.40;;;;;;5033680;28;20215;-61
2021/01/27 02:01:37;;;;;;;2.27;1.70;;;1.10;66.40;;;;;;5032044;28;20253;-61
2021/01/27 02:04:05;;;;;;;3.87;1.70;;;1.10;66.30;;;;;;5033677;28;20496;-61
2021/01/27 02:06:31;;;;;;;2.57;2.23;;;1.10;66.10;;;;;;5031617;28;20322;-61
2021/01/27 02:08:59;;;;;;;3.27;2.17;;;1.10;66.20;;;;;;5033888;28;20218;-62
2021/01/27 02:11:50;;;;;;;2.97;2.10;;;1.00;66.10;;;;;;5034339;28;20206;-61
2021/01/27 02:14:20;;;;;;;3.67;1.57;;;1.00;66.00;;;;;;5021271;28;20240;-61
2021/01/27 02:17:28;;;;;;;1.70;1.47;;;1.00;65.90;;;;;;5029685;28;20243;-62
2021/01/27 02:20:16;;;;;;;2.70;1.93;;;1.10;65.60;;;;;;5028923;28;20546;-61
2021/01/27 02:22:57;;;;;;;3.87;2.20;;;1.10;65.50;;;;;;5005890;28;20226;-62
2021/01/27 02:25:42;;;;;;;2.53;1.60;;;1.10;65.40;;;;;;5033151;28;20233;-61
2021/01/27 02:28:13;;;;;;;2.00;1.80;;;1.10;65.20;;;;;;5033773;28;20215;-62
2021/01/27 02:31:01;;;;;;;1.90;1.67;;;1.10;65.10;;;;;;5032658;28;20557;-61
2021/01/27 02:33:49;;;;;;;2.33;2.13;;;1.10;64.70;;;;;;5033852;28;20219;-62
2021/01/27 02:36:31;;;;;;;3.90;1.87;;;1.20;64.70;;;;;;5031591;28;20209;-61
2021/01/27 02:39:09;;;;;;;2.77;1.97;;;1.20;64.60;;;;;;5033495;28;20612;-62
2021/01/27 02:41:47;;;;;;;2.70;1.73;;;1.20;64.60;;;;;;5032883;28;20207;-61
2021/01/27 02:44:18;;;;;;;4.83;1.57;;;1.20;64.40;;;;;;5033295;28;20203;-61
2021/01/27 02:46:52;;;;;;;2.63;1.83;;;1.20;64.00;;;;;;5032365;28;20230;-61
2021/01/27 02:49:30;;;;;;;4.67;2.20;;;1.20;63.80;;;;;;5032305;28;20211;-61
2021/01/27 02:52:00;;;;;;;1.60;1.33;;;1.20;63.80;;;;;;5029673;28;20203;-61
2021/01/27 02:54:37;;;;;;;2.77;1.73;;;1.20;63.50;;;;;;5031108;28;20588;-61
2021/01/27 02:57:32;;;;;;;3.07;1.93;;;1.20;63.20;;;;;;5034570;28;20217;-61
2021/01/27 03:00:23;;;;;;;2.20;1.50;;;1.30;62.90;;;;;;5019431;28;20662;-61
2021/01/27 03:02:56;;;;;;;2.53;1.80;;;1.30;62.70;;;;;;5030631;28;20218;-61
2021/01/27 03:05:37;;;;;;;4.80;2.30;;;1.30;62.90;;;;;;5033087;28;20304;-61
2021/01/27 03:08:28;;;;;;;3.90;1.93;;;1.20;63.00;;;;;;5033600;28;20256;-61
2021/01/27 03:11:21;;;;;;;2.50;1.83;;;1.20;63.30;;;;;;5028943;28;20203;-61
2021/01/27 03:13:48;;;;;;;3.33;1.90;;;1.20;63.20;;;;;;5030933;28;20200;-61
2021/01/27 03:16:29;;;;;;;2.70;1.80;;;1.10;63.30;;;;;;5028853;28;20223;-62
2021/01/27 03:19:21;;;;;;;3.63;2.10;;;1.10;63.40;;;;;;5024558;28;20211;-62
2021/01/27 03:21:59;;;;;;;4.17;1.87;;;1.10;63.60;;;;;;5031801;28;20214;-62
2021/01/27 03:24:28;;;;;;;2.73;1.83;;;1.10;63.50;;;;;;5019159;28;20623;-62
2021/01/27 03:26:59;;;;;;;2.83;1.67;;;1.10;63.40;;;;;;5028190;28;20257;-62
2021/01/27 03:29:46;;;;;;;6.27;2.10;;;1.10;63.20;;;;;;5033672;28;20249;-61
2021/01/27 03:32:52;;;;;;;5.07;1.87;;;1.10;62.80;;;;;;5031480;28;20218;-62
2021/01/27 03:35:28;;;;;;;3.20;1.80;;;1.10;62.60;;;;;;5001921;28;20219;-61
2021/01/27 03:38:17;;;;;;;3.03;1.80;;;1.20;62.60;;;;;;5032029;28;20542;-61
2021/01/27 03:40:46;;;;;;;3.13;2.00;;;1.20;62.20;;;;;;5010964;28;21396;-62
2021/01/27 03:43:32;;;;;;;4.80;2.33;;;1.20;62.00;;;;;;5032335;28;20215;-62
2021/01/27 03:46:14;;;;;;;2.73;1.60;;;1.20;61.80;;;;;;5029506;28;20242;-61
2021/01/27 03:48:49;;;;;;;5.87;1.73;;;1.20;61.70;;;;;;5032331;28;20480;-62
2021/01/27 03:51:16;;;;;;;7.67;1.63;;;1.20;61.70;;;;;;5014742;28;20277;-62
2021/01/27 03:53:44;;;;;;;4.17;1.90;;;1.30;61.70;;;;;;5023716;28;20530;-62
2021/01/27 03:56:26;;;;;;;2.33;1.80;;;1.30;61.50;;;;;;5032148;28;20215;-61
2021/01/27 03:58:53;;;;;;;2.47;1.77;;;1.30;61.50;;;;;;5025759;28;20233;-61
2021/01/27 04:01:21;;;;;;;2.63;1.40;;;1.30;61.60;;;;;;5032113;28;20219;-61
2021/01/27 04:03:51;;;;;;;1.40;1.30;;;1.30;61.40;;;;;;5038157;28;20265;-61
2021/01/27 04:06:19;;;;;;;3.43;1.83;;;1.30;61.50;;;;;;5017829;28;20215;-61
2021/01/27 04:08:46;;;;;;;5.20;1.70;;;1.20;61.70;;;;;;5032147;28;20261;-62
2021/01/27 04:11:12;;;;;;;4.70;2.23;;;1.20;61.80;;;;;;5032031;28;20207;-61
2021/01/27 04:13:39;;;;;;;1.90;1.43;;;1.20;62.00;;;;;;5034307;28;20227;-62
2021/01/27 04:16:06;;;;;;;3.10;1.60;;;1.10;62.00;;;;;;5020008;28;20253;-62
2021/01/27 04:18:33;;;;;;;4.17;1.73;;;1.10;62.00;;;;;;5036400;28;20215;-62
2021/01/27 04:21:00;;;;;;;2.97;1.27;;;1.10;62.00;;;;;;5036159;28;20215;-62
2021/01/27 04:23:26;;;;;;;3.27;1.67;;;1.10;61.90;;;;;;5017621;28;20215;-61
2021/01/27 04:25:53;;;;;;;4.50;1.47;;;1.10;62.00;;;;;;5036026;28;20548;-62
2021/01/27 04:28:19;;;;;;;2.60;1.50;;;1.10;62.10;;;;;;5018599;28;20206;-62
2021/01/27 04:30:46;;;;;;;2.37;1.40;;;1.00;62.10;;;;;;5032260;28;20286;-61
2021/01/27 04:33:13;;;;;;;1.67;1.40;;;1.00;62.10;;;;;;5017491;28;20226;-62
2021/01/27 04:35:41;;;;;;;2.63;1.53;;;1.00;62.20;;;;;;5031470;28;20222;-62
2021/01/27 04:38:08;;;;;;;2.37;1.43;;;1.00;62.20;;;;;;5035093;28;20663;-62
2021/01/27 04:40:39;;;;;;;5.03;2.33;;;1.00;62.40;;;;;;5018971;28;20211;-62
2021/01/27 04:43:23;;;;;;;6.17;2.03;;;1.00;62.60;;;;;;5035869;28;20211;-61
2021/01/27 04:46:02;;;;;;;2.03;1.60;;;0.90;62.70;;;;;;5030021;28;20217;-62
2021/01/27 04:49:00;;;;;;;2.20;1.70;;;1.00;62.70;;;;;;5033280;28;20209;-61
2021/01/27 04:51:46;;;;;;;2.70;1.37;;;1.00;62.90;;;;;;5015280;28;20199;-62
2021/01/27 04:54:28;;;;;;;3.90;1.63;;;1.00;62.90;;;;;;5035595;28;20211;-61
2021/01/27 04:57:24;;;;;;;4.30;1.63;;;0.90;63.00;;;;;;5029071;28;20211;-62
2021/01/27 05:00:25;;;;;;;2.23;1.53;;;0.90;63.10;;;;;;5028596;28;20748;-62
2021/01/27 05:03:07;;;;;;;3.17;1.63;;;0.90;63.00;;;;;;5026092;28;20301;-62
2021/01/27 05:05:37;;;;;;;2.37;1.60;;;0.90;62.90;;;;;;5034164;28;20258;-62
2021/01/27 05:08:13;;;;;;;4.17;1.90;;;0.90;63.00;;;;;;5034478;28;20674;-62
2021/01/27 05:10:54;;;;;;;2.53;1.63;;;0.90;63.10;;;;;;5035262;28;20217;-62
2021/01/27 05:13:39;;;;;;;2.50;1.63;;;0.90;63.10;;;;;;5033534;28;20207;-62
2021/01/27 05:16:14;;;;;;;3.27;1.73;;;0.90;63.00;;;;;;5035052;28;20206;-62
2021/01/27 05:18:42;;;;;;;2.73;1.60;;;0.90;63.00;;;;;;5034776;28;20211;-62
2021/01/27 05:21:31;;;;;;;4.10;1.60;;;0.90;63.10;;;;;;5034830;28;20211;-62
2021/01/27 05:23:59;;;;;;;5.10;2.20;;;0.90;63.40;;;;;;5032003;28;20211;-62
2021/01/27 05:27:13;;;;;;;4.47;2.30;;;0.90;63.30;;;;;;5031992;28;20250;-62
2021/01/27 05:29:45;;;;;;;3.00;2.17;;;0.90;63.60;;;;;;5038604;28;20203;-61
2021/01/27 05:32:15;;;;;;;3.87;2.07;;;0.80;63.80;;;;;;5031873;28;20251;-62
2021/01/27 05:34:52;;;;;;;5.60;2.47;;;0.80;63.90;;;;;;5034648;28;20207;-62
2021/01/27 05:37:20;;;;;;;2.47;1.80;;;0.80;63.90;;;;;;5032797;28;20211;-61
2021/01/27 05:39:49;;;;;;;2.70;1.70;;;0.70;63.90;;;;;;5034899;28;20215;-61
2021/01/27 05:42:28;;;;;;;3.57;2.03;;;0.80;64.00;;;;;;5034174;28;20211;-62
2021/01/27 05:45:19;;;;;;;1.57;1.47;;;0.70;64.10;;;;;;5014398;28;20215;-61
2021/01/27 05:47:47;;;;;;;4.40;2.40;;;0.70;64.20;;;;;;5033249;28;20242;-62
2021/01/27 05:50:20;;;;;;;4.67;2.13;;;0.60;64.40;;;;;;5034879;28;20211;-62
2021/01/27 05:52:46;;;;;;;4.33;2.03;;;0.60;64.90;;;;;;5030737;28;20657;-61
2021/01/27 05:55:13;;;;;;;2.97;2.30;;;0.50;65.20;;;;;;5033168;28;20211;-61
2021/01/27 05:57:41;;;;;;;5.70;1.90;;;0.40;65.40;;;;;;5033497;28;20226;-62
2021/01/27 06:00:11;;;;;;;2.33;1.57;;;0.40;65.60;;;;;;5034448;28;20234;-62
2021/01/27 06:02:42;;;;;;;2.87;1.60;;;0.40;65.70;;;;;;5035082;28;20215;-61
2021/01/27 06:05:16;;;;;;;4.07;1.70;;;0.40;65.60;;;;;;5034719;28;20251;-62
2021/01/27 06:07:43;;;;;;;3.50;2.13;;;0.40;65.60;;;;;;5005740;28;20235;-62
2021/01/27 06:10:35;;;;;;;3.87;1.80;;;0.40;65.40;;;;;;5011990;28;20212;-62
2021/01/27 06:13:24;;;;;;;3.13;1.83;;;0.50;65.30;;;;;;4997490;28;20215;-61
2021/01/27 06:15:51;;;;;;;3.33;1.93;;;0.50;65.20;;;;;;4994374;28;20992;-61
2021/01/27 06:18:22;;;;;;;3.80;1.90;;;0.50;65.10;;;;;;4986099;28;20216;-63
2021/01/27 06:21:06;;;;;;;4.87;2.03;;;0.50;65.30;;;;;;5002473;28;20587;-61
2021/01/27 06:23:52;;;;;;;3.00;2.40;;;0.50;65.50;;;;;;5003216;28;20565;-61
2021/01/27 06:26:40;;;;;;;13.70;4.70;;;0.50;65.70;;;;;;5001437;28;20231;-61
2021/01/27 06:29:07;;;;;;;8.70;4.20;;;0.50;65.80;;;;;;5015179;28;20204;-62
2021/01/27 06:32:11;;;;;;;6.87;2.97;;;0.50;65.80;;;;;;5011024;28;20218;-61
2021/01/27 06:35:32;;;;;;;8.07;2.90;;;0.50;65.50;;;;;;5013036;28;20242;-61
2021/01/27 06:38:30;;;;;;;2.47;1.53;;;0.50;65.30;;;;;;4994549;28;20675;-61
2021/01/27 06:41:41;;;;;;;4.97;2.17;;;0.50;65.70;;;;;;5019676;28;20215;-61
2021/01/27 06:44:44;;;;;;;6.83;2.00;;;0.60;64.90;;;;;;4970912;28;20229;-61
2021/01/27 06:47:23;;;;;;;8.60;2.67;;;0.60;64.60;;;;;;4958589;28;20245;-61
2021/01/27 06:50:21;;;;;;;5.77;1.90;;;0.60;64.50;;;;;;5003578;28;20287;-61
2021/01/27 06:53:09;;;;;;;3.17;1.83;;;0.70;64.60;;;;;;5003283;28;20204;-61
2021/01/27 06:56:02;;;;;;;6.60;2.00;;;0.80;64.50;;;;;;5010469;28;20551;-61
2021/01/27 06:58:59;;;;;;;3.90;2.53;;;0.90;64.30;;;;;;4993873;28;20204;-61
2021/01/27 07:01:47;;;;;;;5.57;2.77;;;1.10;64.10;;;;;;5008302;28;20215;-61
2021/01/27 07:04:39;;;;;;;3.73;2.43;;;1.30;63.90;;;;;;5012875;28;20240;-62
2021/01/27 07:07:43;;;;;;;5.43;2.20;;;1.40;64.30;;;;;;5013195;28;20247;-62
2021/01/27 07:10:27;;;;;;;4.73;2.47;;;1.40;63.60;;;;;;5027815;28;20211;-62
2021/01/27 07:13:22;;;;;;;9.57;2.60;;;1.50;63.50;;;;;;5026214;28;20517;-61
2021/01/27 07:16:14;;;;;;;8.40;3.10;;;1.40;63.50;;;;;;5024566;28;20218;-61
2021/01/27 07:18:46;;;;;;;8.43;3.77;;;1.40;63.30;;;;;;5032053;28;20212;-61
2021/01/27 07:21:30;;;;;;;5.30;2.63;;;1.50;63.30;;;;;;5030027;28;20218;-62
2021/01/27 07:24:11;;;;;;;6.70;2.40;;;1.40;63.30;;;;;;5032345;28;20216;-61
2021/01/27 07:26:51;;;;;;;8.17;2.90;;;1.40;63.40;;;;;;5030686;28;20242;-61
2021/01/27 07:29:23;;;;;;;10.77;2.77;;;1.40;63.60;;;;;;5029556;28;20206;-61
2021/01/27 07:32:11;;;;;;;6.20;2.80;;;1.40;63.60;;;;;;5028466;28;20207;-61
2021/01/27 07:34:41;;;;;;;4.53;2.17;;;1.40;63.60;;;;;;5033415;28;20222;-61
2021/01/27 07:37:44;;;;;;;4.30;2.77;;;1.40;63.60;;;;;;5030479;28;20226;-61
2021/01/27 07:40:41;;;;;;;5.23;2.50;;;1.40;63.70;;;;;;5027860;28;20643;-63
2021/01/27 07:43:27;;;;;;;3.17;2.30;;;1.40;63.80;;;;;;5025974;28;20215;-62
2021/01/27 07:45:59;;;;;;;4.07;2.30;;;1.50;63.60;;;;;;5032933;28;20211;-62
2021/01/27 07:49:00;;;;;;;6.17;2.37;;;1.60;63.60;;;;;;5040669;28;20213;-62
2021/01/27 07:51:32;;;;;;;7.60;2.30;;;1.70;63.60;;;;;;5003941;28;20541;-62
2021/01/27 07:54:03;;;;;;;7.03;2.20;;;1.80;63.50;;;;;;5014624;28;20230;-62
2021/01/27 07:56:36;;;;;;;6.27;2.73;;;1.90;63.30;;;;;;5013466;28;20294;-62
2021/01/27 07:59:11;;;;;;;5.43;2.37;;;2.10;63.00;;;;;;5026651;28;20207;-62
2021/01/27 08:02:04;;;;;;;5.07;2.53;;;2.30;62.70;;;;;;5031468;28;20199;-62
2021/01/27 08:04:44;;;;;;;6.40;2.47;;;2.40;62.20;;;;;;5030327;28;20425;-63
2021/01/27 08:07:49;;;;;;;11.97;3.07;;;2.40;62.10;;;;;;5032011;28;20234;-62
2021/01/27 08:10:27;;;;;;;4.37;2.90;;;2.40;62.30;;;;;;5027386;28;20211;-62
2021/01/27 08:13:03;;;;;;;5.87;3.03;;;2.40;62.40;;;;;;5028045;28;20207;-62
2021/01/27 08:15:30;;;;;;;7.13;3.30;;;2.60;62.50;;;;;;5032427;28;20642;-62
2021/01/27 08:18:01;;;;;;;5.60;2.67;;;2.80;62.10;;;;;;5031209;28;20222;-62
2021/01/27 08:20:55;;;;;;;7.00;2.37;;;3.00;61.60;;;;;;5032395;28;20627;-62
2021/01/27 08:23:21;;;;;;;5.60;2.30;;;3.10;61.20;;;;;;5033499;28;20215;-62
2021/01/27 08:26:05;;;;;;;7.93;2.37;;;3.30;60.90;;;;;;5031593;28;20215;-62
2021/01/27 08:28:41;;;;;;;6.50;2.57;;;3.50;60.90;;;;;;5030999;28;20209;-62
2021/01/27 08:31:07;;;;;;;4.97;3.17;;;3.60;60.60;;;;;;5027659;28;20211;-62
2021/01/27 08:33:47;;;;;;;5.73;2.73;;;3.70;60.50;;;;;;5031760;28;20211;-62
2021/01/27 08:36:14;;;;;;;10.23;2.80;;;3.80;60.20;;;;;;5030357;28;20631;-62
2021/01/27 08:39:07;;;;;;;4.77;2.63;;;4.00;59.70;;;;;;5029975;28;20211;-62
2021/01/27 08:42:00;;;;;;;5.93;3.23;;;4.20;59.40;;;;;;5031430;28;20234;-63
2021/01/27 08:44:35;;;;;;;3.83;3.03;;;4.40;59.60;;;;;;5032307;28;20653;-62
2021/01/27 08:47:23;;;;;;;7.50;2.77;;;4.60;59.70;;;;;;5030754;28;20234;-63
2021/01/27 08:49:58;;;;;;;6.43;3.00;;;4.70;59.80;;;;;;5026067;28;20289;-63
2021/01/27 08:52:30;;;;;;;7.07;2.43;;;4.70;59.50;;;;;;5031215;28;20214;-62
2021/01/27 08:54:57;;;;;;;6.67;3.00;;;4.80;59.50;;;;;;5031442;28;20199;-62
2021/01/27 08:57:38;;;;;;;8.53;2.87;;;4.90;59.60;;;;;;5031797;28;20212;-60
2021/01/27 09:00:10;;;;;;;5.97;2.57;;;5.10;59.30;;;;;;5034232;28;20221;-63
2021/01/27 09:02:47;;;;;;;3.77;2.23;;;5.20;58.70;;;;;;5034749;28;20221;-61
2021/01/27 09:05:23;;;;;;;5.83;2.63;;;5.20;58.70;;;;;;5035135;28;20243;-62
2021/01/27 09:07:58;;;;;;;8.30;3.17;;;5.20;58.80;;;;;;5031422;28;20227;-61
2021/01/27 09:10:54;;;;;;;7.87;2.90;;;5.20;59.00;;;;;;5035420;28;20511;-61
2021/01/27 09:13:47;;;;;;;5.50;2.87;;;5.10;59.10;;;;;;5031529;28;20210;-62
2021/01/27 09:16:29;;;;;;;6.40;2.67;;;5.20;59.60;;;;;;5016803;28;20221;-62
2021/01/27 09:19:10;;;;;;;11.37;2.90;;;5.20;59.50;;;;;;5035128;28;20211;-61
2021/01/27 09:21:37;;;;;;;8.23;3.27;;;5.40;59.70;;;;;;5034912;28;20211;-62
2021/01/27 09:24:24;;;;;;;5.87;2.53;;;5.40;59.60;;;;;;5033183;28;20207;-62
2021/01/27 09:26:53;;;;;;;3.90;2.30;;;5.40;59.20;;;;;;5010845;28;20230;-62
2021/01/27 09:29:29;;;;;;;8.47;2.60;;;5.40;59.10;;;;;;5032847;28;20219;-61
2021/01/27 09:32:09;;;;;;;9.47;3.20;;;5.40;59.10;;;;;;5034915;28;20242;-62
2021/01/27 09:34:36;;;;;;;6.37;2.60;;;5.30;59.10;;;;;;5040344;28;20654;-62
2021/01/27 09:37:08;;;;;;;6.10;2.13;;;5.30;59.30;;;;;;5034943;28;20215;-62
2021/01/27 09:39:39;;;;;;;6.10;2.80;;;5.30;59.20;;;;;;5033864;28;20222;-62
2021/01/27 09:42:28;;;;;;;3.53;2.40;;;5.30;59.30;;;;;;5034152;28;20207;-62
2021/01/27 09:45:03;;;;;;;7.00;2.70;;;5.20;59.20;;;;;;5032401;28;21631;-62
2021/01/27 09:47:30;;;;;;;4.27;2.17;;;5.20;59.30;;;;;;5034560;28;20261;-62
2021/01/27 09:49:59;;;;;;;5.00;2.83;;;5.10;59.30;;;;;;5034061;28;20288;-62
2021/01/27 09:52:27;;;;;;;6.23;2.90;;;5.10;59.40;;;;;;5033897;28;20602;-61
2021/01/27 09:55:10;;;;;;;5.07;2.80;;;5.10;59.30;;;;;;5034252;28;20301;-62
2021/01/27 09:57:39;;;;;;;4.73;2.50;;;5.20;58.90;;;;;;5032819;28;20214;-62
2021/01/27 10:00:11;;;;;;;4.30;3.10;;;5.30;59.00;;;;;;5034928;28;20216;-61
2021/01/27 10:02:39;;;;;;;3.30;2.57;;;5.30;59.00;;;;;;5016732;28;20298;-61
2021/01/27 10:05:32;;;;;;;8.80;3.33;;;5.40;59.00;;;;;;5034482;28;20245;-61
2021/01/27 10:08:00;;;;;;;5.43;2.60;;;5.40;59.20;;;;;;5031866;28;20690;-62
2021/01/27 10:10:27;;;;;;;3.40;2.47;;;5.50;59.40;;;;;;5034905;28;20286;-61
2021/01/27 10:12:57;;;;;;;4.03;2.83;;;5.60;59.40;;;;;;5034130;28;20209;-61
2021/01/27 10:15:30;;;;;;;6.37;2.63;;;5.80;59.30;;;;;;5025110;28;20222;-62
2021/01/27 10:18:12;;;;;;;6.63;2.67;;;5.90;58.90;;;;;;5031812;28;20310;-61
2021/01/27 10:20:41;;;;;;;5.10;3.00;;;6.00;58.60;;;;;;5034077;28;20229;-61
2021/01/27 10:23:11;;;;;;;3.80;2.83;;;6.10;58.50;;;;;;5017678;28;20631;-61
2021/01/27 10:25:47;;;;;;;5.60;2.90;;;6.10;58.50;;;;;;5016281;28;20253;-61
2021/01/27 10:28:24;;;;;;;3.70;2.57;;;6.20;58.40;;;;;;5029576;28;20316;-61
2021/01/27 10:30:57;;;;;;;4.73;2.87;;;6.20;58.20;;;;;;5031859;28;20211;-61
2021/01/27 10:33:39;;;;;;;5.80;3.00;;;6.20;58.10;;;;;;5030085;28;20207;-61
2021/01/27 10:36:26;;;;;;;6.20;3.13;;;6.20;58.00;;;;;;5028422;28;20214;-61
2021/01/27 10:39:29;;;;;;;6.77;3.50;;;6.10;58.00;;;;;;5028021;28;20238;-62
2021/01/27 10:42:22;;;;;;;6.33;3.87;;;6.00;58.00;;;;;;5021117;28;20218;-61
2021/01/27 10:45:14;;;;;;;5.53;3.83;;;5.90;58.30;;;;;;5032774;28;20230;-61
2021/01/27 10:47:43;;;;;;;9.57;3.87;;;5.90;58.10;;;;;;5033294;28;20235;-61
2021/01/27 10:50:10;;;;;;;4.60;3.13;;;5.90;58.40;;;;;;5032474;28;20599;-61
2021/01/27 10:52:58;;;;;;;7.37;3.93;;;5.90;58.50;;;;;;5016949;28;20219;-61
2021/01/27 10:55:31;;;;;;;7.37;4.23;;;5.90;58.50;;;;;;5026020;28;20200;-61
2021/01/27 10:58:07;;;;;;;6.33;4.27;;;5.90;57.50;;;;;;5025746;28;20207;-61
2021/01/27 11:00:34;;;;;;;8.63;4.03;;;5.90;57.70;;;;;;5030329;28;20676;-61
2021/01/27 11:03:00;;;;;;;9.33;4.47;;;5.90;57.80;;;;;;5031071;28;20305;-62
2021/01/27 11:05:27;;;;;;;5.53;3.70;;;5.90;57.70;;;;;;5032884;28;20238;-61
2021/01/27 11:07:55;;;;;;;8.97;4.07;;;5.90;57.50;;;;;;5032192;28;20219;-61
2021/01/27 11:10:23;;;;;;;9.73;3.60;;;5.80;57.40;;;;;;5033719;28;20211;-61
2021/01/27 11:12:49;;;;;;;6.87;4.00;;;5.80;57.50;;;;;;5016843;28;20234;-61
2021/01/27 11:15:17;;;;;;;10.53;4.30;;;5.80;57.80;;;;;;5029503;28;20263;-61
2021/01/27 11:17:43;;;;;;;6.13;3.90;;;5.70;57.50;;;;;;5033178;28;20211;-61
2021/01/27 11:20:11;;;;;;;8.83;4.87;;;5.70;57.60;;;;;;5029455;28;20214;-61
2021/01/27 11:22:37;;;;;;;6.57;4.17;;;5.70;58.10;;;;;;5032535;28;20203;-61
2021/01/27 11:25:04;;;;;;;11.10;5.27;;;5.80;58.90;;;;;;5031167;28;20211;-62
2021/01/27 11:27:31;;;;;;;7.60;4.63;;;5.80;59.10;;;;;;5032332;28;20230;-61
2021/01/27 11:29:58;;;;;;;7.47;4.77;;;5.80;59.20;;;;;;5032283;28;20294;-61
2021/01/27 11:32:24;;;;;;;7.60;4.57;;;5.80;59.40;;;;;;5040518;28;20290;-61
2021/01/27 11:34:51;;;;;;;8.13;4.97;;;5.80;59.60;;;;;;5015863;28;20215;-62
2021/01/27 11:37:17;;;;;;;7.83;5.00;;;5.90;59.80;;;;;;5020170;28;20654;-61
2021/01/27 11:39:45;;;;;;;6.30;4.97;;;5.90;59.80;;;;;;5014555;28;20211;-61
2021/01/27 11:42:12;;;;;;;9.00;5.47;;;5.90;59.90;;;;;;5019064;28;20227;-62
2021/01/27 11:44:38;;;;;;;9.67;5.67;;;6.00;60.00;;;;;;5014526;28;20215;-61
2021/01/27 11:47:05;;;;;;;9.33;5.33;;;6.10;60.00;;;;;;5031820;28;20234;-61
2021/01/27 11:49:32;;;;;;;7.60;5.27;;;6.10;60.10;;;;;;5031713;28;20207;-61
2021/01/27 11:52:00;;;;;;;6.77;4.93;;;6.20;60.20;;;;;;5031865;28;20289;-61
2021/01/27 11:54:27;;;;;;;7.33;5.30;;;6.30;60.10;;;;;;5032282;28;20203;-61
2021/01/27 11:56:54;;;;;;;6.97;5.27;;;6.40;60.00;;;;;;5032105;28;20218;-61
2021/01/27 11:59:20;;;;;;;8.67;6.43;;;6.50;60.00;;;;;;5032047;28;20631;-61
2021/01/27 12:01:46;;;;;;;8.97;4.43;;;6.60;59.80;;;;;;5032238;28;20211;-61
2021/01/27 12:04:13;;;;;;;7.60;4.63;;;6.60;59.50;;;;;;5014822;28;20242;-62
2021/01/27 12:06:40;;;;;;;8.70;4.30;;;6.70;59.70;;;;;;5030847;28;20305;-61
2021/01/27 12:09:07;;;;;;;13.03;6.80;;;6.80;59.80;;;;;;5028623;28;20207;-61
2021/01/27 12:11:33;;;;;;;11.53;7.13;;;6.90;59.70;;;;;;5025168;28;20211;-61
2021/01/27 12:14:00;;;;;;;18.03;9.07;;;6.90;59.30;;;;;;5014941;28;20206;-61
2021/01/27 12:16:27;;;;;;;14.53;7.97;;;7.00;59.30;;;;;;5031753;28;20222;-61
2021/01/27 12:18:54;;;;;;;12.17;7.37;;;6.90;59.20;;;;;;5032211;28;20615;-61
2021/01/27 12:21:20;;;;;;;14.50;7.77;;;7.00;59.80;;;;;;5031622;28;20611;-61
2021/01/27 12:23:47;;;;;;;14.07;7.00;;;7.00;60.20;;;;;;5014659;28;20202;-62
2021/01/27 12:26:13;;;;;;;12.93;7.33;;;7.00;60.40;;;;;;5032386;28;20623;-62
2021/01/27 12:28:40;;;;;;;11.47;6.77;;;7.00;60.50;;;;;;5016322;28;20257;-61
2021/01/27 12:31:07;;;;;;;14.20;7.33;;;6.90;60.90;;;;;;5030873;28;20214;-61
2021/01/27 12:33:33;;;;;;;10.80;6.70;;;6.90;61.10;;;;;;5031570;28;20273;-61
2021/01/27 12:36:00;;;;;;;8.80;6.03;;;6.90;61.20;;;;;;5035609;28;20203;-62
2021/01/27 12:38:27;;;;;;;12.53;6.20;;;6.80;61.30;;;;;;5036349;28;20215;-61
2021/01/27 12:40:53;;;;;;;15.10;5.93;;;6.80;61.60;;;;;;5036052;28;20549;-61
2021/01/27 12:43:20;;;;;;;9.23;5.70;;;6.80;62.10;;;;;;5019117;28;20211;-61
2021/01/27 12:45:46;;;;;;;7.27;5.80;;;6.70;62.60;;;;;;5035861;28;20214;-61
2021/01/27 12:48:13;;;;;;;12.43;5.77;;;6.70;63.10;;;;;;5030588;28;20219;-61
2021/01/27 12:50:40;;;;;;;11.97;6.47;;;6.70;63.40;;;;;;5033419;28;20237;-61
2021/01/27 12:53:07;;;;;;;7.83;5.67;;;6.60;63.90;;;;;;5034451;28;20544;-61
2021/01/27 12:55:33;;;;;;;8.30;5.37;;;6.50;64.10;;;;;;5035488;28;20682;-61
2021/01/27 12:58:00;;;;;;;9.70;5.57;;;6.50;64.40;;;;;;5033681;28;20208;-61
2021/01/27 13:00:28;;;;;;;8.37;5.20;;;6.50;64.70;;;;;;5034634;28;20307;-61
2021/01/27 13:02:55;;;;;;;6.83;4.97;;;6.40;65.00;;;;;;5035322;28;20215;-61
2021/01/27 13:05:25;;;;;;;21.60;5.87;;;6.30;64.80;;;;;;5017767;28;20251;-61
2021/01/27 13:07:52;;;;;;;11.00;5.90;;;6.40;64.80;;;;;;5035005;28;20227;-61
2021/01/27 13:10:19;;;;;;;7.53;5.40;;;6.30;64.80;;;;;;5034230;28;20206;-61
2021/01/27 13:12:46;;;;;;;12.83;5.33;;;6.30;65.00;;;;;;5014413;28;20203;-61
2021/01/27 13:15:17;;;;;;;8.70;5.43;;;6.30;65.20;;;;;;5017605;28;20297;-61
2021/01/27 13:17:47;;;;;;;10.53;6.23;;;6.30;65.50;;;;;;5017710;28;20211;-61
2021/01/27 13:20:17;;;;;;;14.33;7.20;;;6.30;65.70;;;;;;5034774;28;20234;-62
2021/01/27 13:22:44;;;;;;;16.77;6.37;;;6.30;65.80;;;;;;5021123;28;20215;-61
2021/01/27 13:25:18;;;;;;;11.23;6.53;;;6.30;65.80;;;;;;5042651;28;20930;-62
2021/01/27 13:28:01;;;;;;;9.77;7.57;;;6.40;65.90;;;;;;5035573;28;20243;-62
2021/01/27 13:30:29;;;;;;;12.80;6.20;;;6.40;66.00;;;;;;5035137;28;20207;-61
2021/01/27 13:32:56;;;;;;;15.67;7.17;;;6.40;66.20;;;;;;5034936;28;20206;-61
2021/01/27 13:35:26;;;;;;;12.00;7.50;;;6.40;66.20;;;;;;5034557;28;20215;-61
2021/01/27 13:37:53;;;;;;;10.07;5.90;;;6.50;66.30;;;;;;5033647;28;20234;-61